Time;durP1;ratioP1;P1;durP2;ratioP2;P2;SDS_P1;SDS_P2;PMS_P1;PMS_P2;Temp;Humidity;BMP_temperature;BMP_pressure;BME280_temperature;BME280_humidity;BME280_pressure;Samples;Min_cycle;Max_cycle;Signal;HPM_P1;HPM_P2
2023/08/25 00:00:55;;;;;;;3.08;1.52;;;;;;;21.63;100.00;97843.53;15270214;19;20409;-73
2023/08/25 00:06:23;;;;;;;4.25;1.60;;;;;;;21.51;100.00;97838.06;15266592;19;20011;-75
2023/08/25 00:11:48;;;;;;;2.10;1.35;;;;;;;21.52;100.00;97845.22;15264599;19;20545;-72
2023/08/25 00:17:13;;;;;;;3.83;1.50;;;;;;;21.51;100.00;97857.25;15269516;19;20493;-74
2023/08/25 00:22:40;;;;;;;3.95;1.50;;;;;;;21.53;100.00;97848.78;15270514;19;20021;-71
2023/08/25 00:28:05;;;;;;;3.90;1.38;;;;;;;21.54;100.00;97848.53;15266294;19;20025;-74
2023/08/25 00:33:24;;;;;;;4.07;1.55;;;;;;;21.56;100.00;97856.50;15267020;19;20018;-76
2023/08/25 00:38:51;;;;;;;2.60;1.40;;;;;;;21.57;100.00;97862.84;15266418;19;20094;-73
2023/08/25 00:44:17;;;;;;;2.83;1.40;;;;;;;21.55;100.00;97863.91;15259126;19;20013;-72
2023/08/25 00:49:42;;;;;;;2.97;1.40;;;;;;;21.51;100.00;97868.22;15281591;19;20039;-76
2023/08/25 00:55:10;;;;;;;3.00;1.40;;;;;;;21.48;100.00;97867.88;15279171;19;20403;-72
2023/08/25 01:00:34;;;;;;;1.67;1.30;;;;;;;21.43;100.00;97865.88;15279368;19;20015;-72
2023/08/25 01:06:00;;;;;;;3.00;1.50;;;;;;;21.41;100.00;97854.34;15295261;19;20015;-72
2023/08/25 01:11:44;;;;;;;2.00;1.10;;;;;;;21.42;100.00;97852.41;15288335;19;20014;-71
2023/08/25 01:17:16;;;;;;;2.47;1.20;;;;;;;21.36;100.00;97840.53;15274278;19;20018;-72
2023/08/25 01:22:50;;;;;;;1.98;1.08;;;;;;;21.34;100.00;97826.25;15279377;19;20019;-72
2023/08/25 01:28:17;;;;;;;2.20;1.38;;;;;;;21.34;100.00;97820.78;15282647;19;20031;-71
2023/08/25 01:33:46;;;;;;;2.42;1.30;;;;;;;21.36;100.00;97813.97;15277974;19;20018;-73
2023/08/25 01:39:16;;;;;;;2.65;1.40;;;;;;;21.39;100.00;97821.72;15282148;19;20082;-73
2023/08/25 01:44:45;;;;;;;1.98;1.20;;;;;;;21.38;100.00;97816.47;15280301;19;20019;-71
2023/08/25 01:50:12;;;;;;;2.70;1.30;;;;;;;21.36;100.00;97819.47;15275313;19;20488;-71
2023/08/25 01:55:37;;;;;;;2.88;1.20;;;;;;;21.34;100.00;97818.88;15279625;19;20358;-71
2023/08/25 02:01:05;;;;;;;4.95;1.33;;;;;;;21.35;100.00;97816.94;15275289;19;20373;-71
2023/08/25 02:06:37;;;;;;;2.22;1.30;;;;;;;21.34;100.00;97815.31;15271908;19;20126;-71
2023/08/25 02:12:02;;;;;;;1.63;1.20;;;;;;;21.33;100.00;97813.63;15282989;19;20010;-71
2023/08/25 02:17:29;;;;;;;2.30;1.33;;;;;;;21.29;100.00;97806.97;15281090;19;20010;-74
2023/08/25 02:22:54;;;;;;;4.30;1.30;;;;;;;21.27;100.00;97803.66;15269470;19;20448;-72
2023/08/25 02:28:18;;;;;;;3.78;1.40;;;;;;;21.21;100.00;97798.09;15278104;19;20561;-71
2023/08/25 02:33:53;;;;;;;3.47;1.42;;;;;;;21.18;100.00;97801.31;15274046;19;20108;-71
2023/08/25 02:39:19;;;;;;;2.22;1.50;;;;;;;21.11;100.00;97800.63;15278170;19;20085;-71
2023/08/25 02:44:43;;;;;;;2.95;1.30;;;;;;;21.05;100.00;97804.34;15278854;19;20474;-71
2023/08/25 02:50:11;;;;;;;5.15;1.60;;;;;;;20.99;100.00;97813.56;15284158;19;20019;-71
2023/08/25 02:55:37;;;;;;;3.90;1.45;;;;;;;20.82;100.00;97813.47;15279700;19;20014;-74
2023/08/25 03:01:02;;;;;;;5.45;1.70;;;;;;;20.71;100.00;97807.75;15276949;19;20027;-76
2023/08/25 03:06:39;;;;;;;1.98;1.40;;;;;;;20.70;100.00;97805.28;15268619;19;20018;-75
2023/08/25 03:12:05;;;;;;;3.17;1.60;;;;;;;20.73;100.00;97810.28;15271147;19;20056;-72
2023/08/25 03:17:30;;;;;;;2.30;1.60;;;;;;;20.74;100.00;97806.47;15277557;19;20007;-72
2023/08/25 03:22:57;;;;;;;5.07;1.60;;;;;;;20.77;100.00;97792.31;15266307;19;20054;-72
2023/08/25 03:28:22;;;;;;;2.20;1.52;;;;;;;20.72;100.00;97800.41;15278267;19;20022;-74
2023/08/25 03:33:47;;;;;;;5.15;1.70;;;;;;;20.69;100.00;97799.00;15275102;19;20025;-77
2023/08/25 03:39:14;;;;;;;4.72;1.77;;;;;;;20.67;100.00;97801.13;15271754;19;20694;-72
2023/08/25 03:44:39;;;;;;;3.47;1.30;;;;;;;20.66;100.00;97799.47;15276105;19;20027;-76
2023/08/25 03:50:03;;;;;;;3.42;1.40;;;;;;;20.68;100.00;97796.47;15276752;19;20026;-73
2023/08/25 03:55:31;;;;;;;3.72;1.40;;;;;;;20.70;100.00;97780.66;15272270;19;20006;-75
2023/08/25 04:01:00;;;;;;;3.63;1.40;;;;;;;20.68;100.00;97780.06;15276567;19;20007;-73
2023/08/25 04:06:26;;;;;;;3.67;1.43;;;;;;;20.66;100.00;97794.00;15270040;19;20031;-74
2023/08/25 04:11:54;;;;;;;3.03;1.40;;;;;;;20.62;100.00;97787.31;15278585;19;20594;-75
2023/08/25 04:17:20;;;;;;;3.60;1.55;;;;;;;20.64;100.00;97794.22;15281319;19;20035;-74
2023/08/25 04:22:44;;;;;;;3.47;1.52;;;;;;;20.62;100.00;97795.53;15265155;19;20356;-74
2023/08/25 04:28:12;;;;;;;4.13;1.52;;;;;;;20.62;100.00;97782.69;15264821;19;20625;-76
2023/08/25 04:33:36;;;;;;;4.00;1.63;;;;;;;20.57;100.00;97785.31;15272789;19;20027;-74
2023/08/25 04:39:01;;;;;;;3.95;1.80;;;;;;;20.54;100.00;97795.91;15270382;19;20502;-74
2023/08/25 04:44:29;;;;;;;3.08;1.42;;;;;;;20.52;100.00;97793.41;15263703;19;20118;-74
2023/08/25 04:49:57;;;;;;;2.10;1.40;;;;;;;20.45;100.00;97789.97;15273523;19;20044;-74
2023/08/25 04:55:23;;;;;;;4.18;1.60;;;;;;;20.38;100.00;97806.53;15270316;19;20018;-75
2023/08/25 05:00:53;;;;;;;3.55;1.60;;;;;;;20.38;100.00;97801.06;15265485;19;20031;-76
2023/08/25 05:06:17;;;;;;;2.47;1.50;;;;;;;20.30;100.00;97801.44;15268516;19;20029;-77
2023/08/25 05:11:43;;;;;;;6.03;1.70;;;;;;;20.32;100.00;97794.63;15275641;19;20010;-73
2023/08/25 05:17:10;;;;;;;4.72;1.70;;;;;;;20.33;100.00;97793.56;15268394;19;20021;-77
2023/08/25 05:22:36;;;;;;;9.13;1.80;;;;;;;20.36;100.00;97785.97;15271942;19;20019;-77
2023/08/25 05:27:55;;;;;;;4.28;1.50;;;;;;;20.40;100.00;97792.63;15276492;19;20388;-77
2023/08/25 05:33:23;;;;;;;3.70;1.50;;;;;;;20.46;100.00;97786.19;15264286;19;20046;-72
2023/08/25 05:39:24;;;;;;;3.00;1.48;;;;;;;20.54;100.00;97785.78;15287245;19;20038;-77
2023/08/25 05:44:48;;;;;;;2.85;1.35;;;;;;;20.60;100.00;97790.31;15284401;19;20022;-76
2023/08/25 05:50:15;;;;;;;1.73;1.25;;;;;;;20.67;100.00;97792.06;15284141;19;20790;-73
2023/08/25 05:55:41;;;;;;;6.45;1.40;;;;;;;20.73;100.00;97800.16;15283396;19;20478;-76
2023/08/25 06:01:06;;;;;;;3.35;1.35;;;;;;;20.84;100.00;97795.75;15285629;19;20415;-76
2023/08/25 06:06:33;;;;;;;3.13;1.48;;;;;;;20.90;100.00;97794.75;15272995;19;20033;-78
2023/08/25 06:12:01;;;;;;;5.63;1.48;;;;;;;20.99;100.00;97800.69;15291580;19;20360;-77
2023/08/25 06:17:25;;;;;;;3.40;1.42;;;;;;;21.07;100.00;97804.94;15286834;19;20018;-77
2023/08/25 06:22:53;;;;;;;2.60;1.30;;;;;;;21.18;100.00;97781.28;15277631;19;20051;-75
2023/08/25 06:28:17;;;;;;;3.25;1.38;;;;;;;21.28;100.00;97789.72;15285125;19;20017;-77
2023/08/25 06:33:42;;;;;;;3.45;1.20;;;;;;;21.41;100.00;97794.06;15284122;19;20668;-76
2023/08/25 06:39:10;;;;;;;1.70;1.13;;;;;;;21.52;100.00;97789.59;15278190;19;20033;-73
2023/08/25 06:44:37;;;;;;;2.92;1.23;;;;;;;21.63;100.00;97779.63;15301544;19;20022;-76
2023/08/25 06:50:02;;;;;;;3.22;1.20;;;;;;;21.74;100.00;97773.25;15309265;19;20015;-79
2023/08/25 06:55:30;;;;;;;1.63;1.10;;;;;;;21.89;100.00;97789.09;15282571;19;20045;-77
2023/08/25 07:00:55;;;;;;;4.32;1.27;;;;;;;22.04;100.00;97790.41;15315424;19;20142;-76
2023/08/25 07:06:20;;;;;;;1.92;1.15;;;;;;;22.26;100.00;97779.50;15306252;19;20466;-75
2023/08/25 07:11:48;;;;;;;2.33;1.30;;;;;;;22.46;100.00;97776.22;15278275;19;20034;-75
2023/08/25 07:17:13;;;;;;;2.50;1.20;;;;;;;22.62;100.00;97774.50;15280013;19;20015;-76
2023/08/25 07:22:38;;;;;;;2.65;1.20;;;;;;;22.81;100.00;97750.28;15283873;19;20014;-75
2023/08/25 07:28:07;;;;;;;3.38;1.20;;;;;;;22.94;100.00;97751.78;15278986;19;20006;-76
2023/08/25 07:33:32;;;;;;;2.40;1.30;;;;;;;23.07;100.00;97748.63;15291224;19;20073;-76
2023/08/25 07:38:57;;;;;;;5.13;1.30;;;;;;;23.26;100.00;97737.28;15308815;19;20053;-76
2023/08/25 07:44:24;;;;;;;2.42;1.15;;;;;;;23.39;100.00;97744.28;15349425;19;19998;-78
2023/08/25 07:49:49;;;;;;;2.10;1.17;;;;;;;23.55;100.00;97759.81;15354015;19;20222;-78
2023/08/25 07:55:14;;;;;;;3.25;1.30;;;;;;;23.72;100.00;97755.25;15293705;19;20406;-79
2023/08/25 08:00:43;;;;;;;5.35;1.45;;;;;;;23.85;100.00;97765.81;15287475;19;20018;-80
2023/08/25 08:06:08;;;;;;;4.07;1.20;;;;;;;24.09;100.00;97755.28;15291585;19;20380;-79
2023/08/25 08:11:33;;;;;;;4.13;1.15;;;;;;;24.27;100.00;97750.41;15292136;19;20078;-79
2023/08/25 08:17:00;;;;;;;3.88;1.20;;;;;;;24.49;100.00;97763.16;15283003;19;20025;-79
2023/08/25 08:22:27;;;;;;;2.90;1.00;;;;;;;24.62;100.00;97754.41;15296550;19;20055;-78
2023/08/25 08:27:52;;;;;;;2.50;1.00;;;;;;;24.79;100.00;97765.25;15298929;19;20010;-78
2023/08/25 08:33:20;;;;;;;2.65;1.20;;;;;;;24.84;100.00;97778.22;15288108;19;20031;-76
2023/08/25 08:38:44;;;;;;;2.03;1.10;;;;;;;24.84;100.00;97789.22;15291823;19;20522;-79
2023/08/25 08:44:12;;;;;;;1.73;1.00;;;;;;;24.83;100.00;97769.13;15290076;19;20030;-78
2023/08/25 08:49:42;;;;;;;1.48;1.00;;;;;;;24.85;100.00;97780.72;15292350;19;20370;-75
2023/08/25 08:55:09;;;;;;;1.80;1.00;;;;;;;24.83;100.00;97780.16;15299171;19;20061;-78
2023/08/25 09:00:34;;;;;;;1.58;1.00;;;;;;;24.85;100.00;97801.91;15306235;19;20098;-79
2023/08/25 09:06:03;;;;;;;3.28;0.90;;;;;;;24.79;100.00;97809.31;15296303;19;20010;-76
2023/08/25 09:11:28;;;;;;;2.53;1.20;;;;;;;24.86;100.00;97804.41;15308362;19;20002;-80
2023/08/25 09:16:57;;;;;;;2.33;1.00;;;;;;;24.97;100.00;97802.50;15294456;19;20481;-78
2023/08/25 09:22:25;;;;;;;1.58;1.00;;;;;;;25.00;100.00;97814.91;15308131;19;20018;-77
2023/08/25 09:27:50;;;;;;;1.88;0.88;;;;;;;24.98;100.00;97828.16;15299231;19;20006;-75
2023/08/25 09:33:15;;;;;;;3.47;0.90;;;;;;;25.04;100.00;97846.34;15299485;19;20868;-76
2023/08/25 09:38:48;;;;;;;1.88;0.82;;;;;;;24.99;100.00;97860.13;15313356;19;20022;-78
2023/08/25 09:44:21;;;;;;;4.17;0.90;;;;;;;24.91;100.00;97844.94;15296430;19;20081;-79
2023/08/25 09:49:46;;;;;;;2.90;1.00;;;;;;;24.89;100.00;97852.63;15294433;19;20014;-79
2023/08/25 09:55:15;;;;;;;1.63;0.80;;;;;;;24.93;100.00;97837.22;15297085;19;20094;-79
2023/08/25 10:00:42;;;;;;;2.58;1.00;;;;;;;24.98;100.00;97825.38;15298342;19;20003;-76
2023/08/25 10:06:09;;;;;;;2.08;0.90;;;;;;;24.95;100.00;97835.00;15287704;19;20010;-79
2023/08/25 10:11:40;;;;;;;2.08;0.90;;;;;;;24.83;100.00;97846.25;15300220;19;20011;-78
2023/08/25 10:17:09;;;;;;;2.60;0.75;;;;;;;24.67;100.00;97856.34;15290158;19;20031;-77
2023/08/25 10:22:37;;;;;;;1.50;0.82;;;;;;;24.68;100.00;97843.41;15287246;19;20011;-79
2023/08/25 10:28:05;;;;;;;2.42;0.85;;;;;;;24.69;100.00;97825.81;15298583;19;20114;-76
2023/08/25 10:33:47;;;;;;;2.15;0.93;;;;;;;24.74;100.00;97812.06;15296973;19;20067;-79
2023/08/25 10:39:19;;;;;;;1.83;0.80;;;;;;;24.81;100.00;97807.13;15285262;19;20043;-76
2023/08/25 10:44:54;;;;;;;2.25;0.90;;;;;;;24.90;100.00;97811.03;15294235;19;20014;-79
2023/08/25 10:50:22;;;;;;;2.17;1.10;;;;;;;25.01;100.00;97805.53;15296686;19;20038;-78
2023/08/25 10:55:48;;;;;;;1.98;1.00;;;;;;;25.12;100.00;97801.72;15280054;19;20021;-75
2023/08/25 11:01:17;;;;;;;5.15;0.90;;;;;;;25.28;100.00;97799.00;15295897;19;20035;-77
2023/08/25 11:06:45;;;;;;;1.65;0.80;;;;;;;25.31;100.00;97784.69;15288021;19;20006;-80
2023/08/25 11:12:13;;;;;;;1.55;0.90;;;;;;;25.37;100.00;97813.91;15294691;19;20082;-77
2023/08/25 11:17:47;;;;;;;2.40;0.93;;;;;;;25.41;100.00;97815.03;15312362;19;20006;-79
2023/08/25 11:23:12;;;;;;;1.55;0.80;;;;;;;25.46;100.00;97806.75;15317415;19;20007;-78
2023/08/25 11:28:38;;;;;;;1.27;0.80;;;;;;;25.52;100.00;97822.22;15287649;19;20021;-78
2023/08/25 11:34:06;;;;;;;3.63;0.80;;;;;;;25.66;100.00;97810.66;15286820;19;20354;-80
2023/08/25 11:39:34;;;;;;;2.00;0.80;;;;;;;25.88;100.00;97818.66;15283714;19;20031;-80
2023/08/25 11:44:58;;;;;;;2.17;0.88;;;;;;;25.92;100.00;97811.47;15282220;19;20022;-77
2023/08/25 11:50:27;;;;;;;3.47;0.90;;;;;;;25.97;100.00;97797.69;15287685;19;20008;-77
2023/08/25 11:56:08;;;;;;;1.80;0.90;;;;;;;26.09;100.00;97791.06;15285060;19;20015;-77
2023/08/25 12:01:37;;;;;;;0.80;0.80;;;;;;;26.22;100.00;97785.00;15284377;19;20027;-78
2023/08/25 12:07:04;;;;;;;3.95;0.90;;;;;;;26.44;100.00;97781.06;15284451;19;20018;-79
2023/08/25 12:12:35;;;;;;;2.55;0.80;;;;;;;26.61;100.00;97770.47;15295048;19;20014;-80
2023/08/25 12:18:01;;;;;;;2.50;0.73;;;;;;;26.89;100.00;97759.91;15289288;19;20010;-79
2023/08/25 12:23:35;;;;;;;1.05;0.60;;;;;;;26.97;100.00;97760.41;15290715;19;20581;-83
2023/08/25 12:29:08;;;;;;;1.74;0.86;;;;;;;26.92;100.00;97772.31;15168918;19;10001750;-81
2023/08/25 12:34:34;;;;;;;1.00;0.63;;;;;;;26.90;100.00;97777.28;15292435;19;20245;-78
2023/08/25 12:40:06;;;;;;;1.85;0.57;;;;;;;26.83;100.00;97772.06;15286571;19;20018;-79
2023/08/25 12:45:31;;;;;;;1.88;0.70;;;;;;;26.79;100.00;97781.22;15281709;19;20085;-80
2023/08/25 12:50:56;;;;;;;0.90;0.50;;;;;;;26.73;100.00;97761.88;15280933;19;20018;-82
2023/08/25 12:56:25;;;;;;;1.30;0.63;;;;;;;26.83;100.00;97754.69;15283032;19;20081;-77
2023/08/25 13:01:50;;;;;;;1.73;0.75;;;;;;;26.79;100.00;97742.53;15302895;19;20018;-79
2023/08/25 13:07:15;;;;;;;3.28;0.80;;;;;;;26.75;100.00;97770.69;15285387;19;20022;-79
2023/08/25 13:12:42;;;;;;;1.55;0.60;;;;;;;26.58;100.00;97756.41;15280827;19;20379;-80
2023/08/25 13:18:07;;;;;;;2.05;0.60;;;;;;;26.45;100.00;97755.91;15276763;19;20090;-82
2023/08/25 13:23:31;;;;;;;1.90;0.50;;;;;;;26.49;100.00;97760.88;15271024;19;20473;-79
2023/08/25 13:29:14;;;;;;;0.90;0.70;;;;;;;26.62;100.00;97752.00;15273606;19;20502;-80
2023/08/25 13:34:38;;;;;;;2.33;0.70;;;;;;;27.16;100.00;97736.53;15267245;19;20026;-80
2023/08/25 13:40:05;;;;;;;1.77;0.80;;;;;;;27.43;100.00;97759.28;15276757;19;20677;-81
2023/08/25 13:45:32;;;;;;;1.20;0.60;;;;;;;27.66;100.00;97749.44;15273280;19;20831;-80
2023/08/25 13:50:57;;;;;;;1.52;0.70;;;;;;;27.67;100.00;97724.25;15276547;19;20514;-79
2023/08/25 13:56:24;;;;;;;1.30;0.70;;;;;;;27.50;100.00;97737.66;15282207;19;20014;-80
2023/08/25 14:01:53;;;;;;;2.58;0.80;;;;;;;27.35;100.00;97728.34;15299629;19;20013;-80
2023/08/25 14:07:24;;;;;;;2.38;0.85;;;;;;;27.28;100.00;97710.44;15292379;19;20014;-79
2023/08/25 14:12:49;;;;;;;1.90;0.70;;;;;;;27.28;100.00;97716.78;15294737;19;20018;-80
2023/08/25 14:18:16;;;;;;;1.52;0.70;;;;;;;27.29;100.00;97712.91;15306487;19;20051;-78
2023/08/25 14:23:45;;;;;;;1.30;0.70;;;;;;;27.32;100.00;97705.97;15292906;19;20018;-79
2023/08/25 14:29:09;;;;;;;1.65;0.70;;;;;;;27.33;100.00;97704.84;15293822;19;20043;-77
2023/08/25 14:34:37;;;;;;;2.38;0.80;;;;;;;27.31;100.00;97721.75;15291063;19;20014;-77
2023/08/25 14:40:02;;;;;;;0.85;0.60;;;;;;;27.31;100.00;97727.28;15284487;19;20017;-79
2023/08/25 14:45:27;;;;;;;3.88;0.52;;;;;;;27.29;100.00;97712.91;15296625;19;20019;-79
2023/08/25 14:51:03;;;;;;;5.78;0.80;;;;;;;27.43;100.00;97696.47;15293353;19;20011;-79
2023/08/25 14:56:28;;;;;;;2.75;0.60;;;;;;;27.49;100.00;97700.88;15282720;19;20006;-79
2023/08/25 15:01:52;;;;;;;1.38;0.60;;;;;;;27.59;100.00;97699.94;15289620;19;20090;-77
2023/08/25 15:07:20;;;;;;;2.67;0.80;;;;;;;27.60;100.00;97707.13;15278521;19;20079;-78
2023/08/25 15:12:52;;;;;;;2.97;0.70;;;;;;;27.39;100.00;97706.47;15289717;19;20314;-80
2023/08/25 15:18:17;;;;;;;1.55;0.77;;;;;;;27.10;100.00;97709.19;15290702;19;20780;-77
2023/08/25 15:23:52;;;;;;;1.58;0.70;;;;;;;27.04;100.00;97703.69;15287656;19;20098;-79
2023/08/25 15:29:17;;;;;;;1.98;0.68;;;;;;;27.28;100.00;97691.09;15290385;19;20003;-79
2023/08/25 15:35:02;;;;;;;1.27;0.60;;;;;;;27.45;100.00;97685.16;15296777;19;20019;-79
2023/08/25 15:40:34;;;;;;;3.17;0.68;;;;;;;27.67;100.00;97691.03;15307390;19;20014;-80
2023/08/25 15:46:02;;;;;;;2.30;0.75;;;;;;;27.50;100.00;97685.09;15284390;19;20081;-76
2023/08/25 15:51:27;;;;;;;1.52;0.70;;;;;;;27.17;100.00;97687.56;15279607;19;20018;-78
2023/08/25 15:56:54;;;;;;;1.73;0.65;;;;;;;26.90;100.00;97699.91;15291598;19;20036;-80
2023/08/25 16:02:19;;;;;;;2.00;0.65;;;;;;;26.64;100.00;97686.22;15276904;19;20769;-80
2023/08/25 16:07:43;;;;;;;2.00;0.80;;;;;;;26.48;100.00;97681.88;15288875;19;20036;-80
2023/08/25 16:13:11;;;;;;;3.05;0.75;;;;;;;26.36;100.00;97674.75;15295180;19;20018;-81
2023/08/25 16:18:37;;;;;;;2.40;0.80;;;;;;;26.43;100.00;97672.50;15286042;19;20031;-82
2023/08/25 16:24:02;;;;;;;3.08;0.95;;;;;;;26.65;100.00;97668.53;15289881;19;20035;-78
2023/08/25 16:29:29;;;;;;;0.90;0.63;;;;;;;26.90;100.00;97658.44;15293108;19;20015;-79
2023/08/25 16:34:54;;;;;;;2.65;0.77;;;;;;;26.84;100.00;97656.84;15289335;19;20014;-81
2023/08/25 16:40:19;;;;;;;1.23;0.70;;;;;;;26.56;100.00;97667.47;15293140;19;20036;-78
2023/08/25 16:45:47;;;;;;;3.45;0.90;;;;;;;26.21;100.00;97672.06;15288204;19;20039;-79
2023/08/25 16:51:15;;;;;;;1.92;0.77;;;;;;;25.87;100.00;97673.53;15284091;19;20034;-80
2023/08/25 16:56:40;;;;;;;2.53;0.80;;;;;;;25.81;100.00;97667.16;15289148;19;20023;-80
2023/08/25 17:02:09;;;;;;;2.65;0.90;;;;;;;25.66;100.00;97673.56;15296667;19;20021;-80
2023/08/25 17:07:41;;;;;;;2.85;0.80;;;;;;;25.53;100.00;97672.22;15282576;19;20429;-77
2023/08/25 17:13:06;;;;;;;1.10;0.70;;;;;;;25.52;100.00;97681.59;15293045;19;20046;-79
2023/08/25 17:18:34;;;;;;;4.40;0.80;;;;;;;25.47;100.00;97694.53;15291875;19;20014;-79
2023/08/25 17:23:58;;;;;;;2.13;0.80;;;;;;;25.29;100.00;97724.28;15287211;19;20554;-80
2023/08/25 17:29:24;;;;;;;1.98;0.73;;;;;;;25.15;100.00;97740.53;15297275;19;20009;-79
2023/08/25 17:34:55;;;;;;;0.80;0.57;;;;;;;24.62;100.00;97738.75;15309024;19;20361;-79
2023/08/25 17:40:21;;;;;;;;;;;;;;;23.84;100.00;97748.50;15299160;19;20018;-77
2023/08/25 17:45:46;;;;;;;1.38;0.60;;;;;;;23.70;100.00;97739.03;15301115;19;19928;-81
2023/08/25 17:51:13;;;;;;;3.67;0.60;;;;;;;23.72;100.00;97725.00;15294107;19;20010;-78
2023/08/25 17:56:38;;;;;;;2.92;0.75;;;;;;;23.75;100.00;97718.97;15291990;19;20015;-79
2023/08/25 18:02:03;;;;;;;3.38;0.80;;;;;;;23.79;100.00;97717.38;15298855;19;20014;-78
2023/08/25 18:07:38;;;;;;;1.77;0.57;;;;;;;23.82;100.00;97716.81;15315321;19;20018;-78
2023/08/25 18:13:04;;;;;;;1.80;0.50;;;;;;;23.83;100.00;97721.22;15355953;19;20011;-80
2023/08/25 18:18:30;;;;;;;1.85;0.73;;;;;;;23.79;100.00;97734.69;15357092;19;20703;-80
2023/08/25 18:23:57;;;;;;;1.52;0.60;;;;;;;23.69;100.00;97723.63;15327537;19;20015;-78
2023/08/25 18:29:22;;;;;;;1.58;0.45;;;;;;;23.57;100.00;97722.97;15300133;19;20018;-77
2023/08/25 18:34:46;;;;;;;1.70;0.60;;;;;;;23.45;100.00;97732.22;15294079;19;20033;-80
2023/08/25 18:40:16;;;;;;;2.75;0.70;;;;;;;23.35;100.00;97735.72;15293875;19;20594;-78
2023/08/25 18:45:41;;;;;;;2.45;0.75;;;;;;;23.29;100.00;97758.75;15288271;19;20021;-78
2023/08/25 18:51:09;;;;;;;1.17;0.70;;;;;;;23.27;100.00;97771.13;15297137;19;20089;-81
2023/08/25 18:56:37;;;;;;;1.65;0.82;;;;;;;23.24;100.00;97780.69;15284516;19;20022;-77
2023/08/25 19:02:02;;;;;;;2.05;0.75;;;;;;;23.19;100.00;97778.72;15288900;19;20027;-76
2023/08/25 19:07:27;;;;;;;1.77;0.85;;;;;;;23.17;100.00;97780.03;15283500;19;20018;-78
2023/08/25 19:12:56;;;;;;;4.00;0.80;;;;;;;23.08;100.00;97783.25;15287620;19;20026;-78
2023/08/25 19:18:21;;;;;;;1.83;0.70;;;;;;;22.93;100.00;97769.34;15260680;19;20027;-75
2023/08/25 19:23:45;;;;;;;3.63;0.70;;;;;;;22.87;100.00;97768.47;15285908;19;20006;-77
2023/08/25 19:29:13;;;;;;;1.15;0.80;;;;;;;22.83;100.00;97775.56;15280962;19;20010;-76
2023/08/25 19:34:39;;;;;;;1.17;0.70;;;;;;;22.78;100.00;97784.56;15286526;19;20525;-77
2023/08/25 19:40:10;;;;;;;2.05;0.90;;;;;;;22.74;100.00;97782.59;15285678;19;20363;-77
2023/08/25 19:45:38;;;;;;;2.25;0.70;;;;;;;22.72;100.00;97771.88;15288710;19;20027;-76
2023/08/25 19:51:06;;;;;;;1.13;0.82;;;;;;;22.71;100.00;97766.63;15285296;19;20071;-75
2023/08/25 19:56:31;;;;;;;1.98;0.80;;;;;;;22.68;100.00;97765.22;15301775;19;20018;-74
2023/08/25 20:02:00;;;;;;;2.30;0.90;;;;;;;22.68;100.00;97765.22;15288664;19;20022;-74
2023/08/25 20:07:26;;;;;;;1.02;0.70;;;;;;;22.65;100.00;97763.00;15278722;19;20089;-77
2023/08/25 20:12:52;;;;;;;2.63;0.95;;;;;;;22.61;100.00;97756.38;15282363;19;20435;-77
2023/08/25 20:18:19;;;;;;;2.05;0.80;;;;;;;22.60;100.00;97760.19;15277088;19;20014;-77
2023/08/25 20:23:44;;;;;;;2.47;0.95;;;;;;;22.57;100.00;97752.47;15273800;19;20014;-75
2023/08/25 20:29:12;;;;;;;1.65;0.80;;;;;;;22.53;100.00;97735.69;15283068;19;20033;-77
2023/08/25 20:34:39;;;;;;;0.98;0.80;;;;;;;22.51;100.00;97739.78;15280023;19;20010;-76
2023/08/25 20:40:04;;;;;;;1.92;0.95;;;;;;;22.46;100.00;97732.31;15285298;19;20011;-76
2023/08/25 20:45:28;;;;;;;1.33;0.73;;;;;;;22.41;100.00;97724.00;15283833;19;20077;-76
2023/08/25 20:51:08;;;;;;;2.53;1.10;;;;;;;22.36;100.00;97705.53;15286260;19;20117;-78
2023/08/25 20:56:34;;;;;;;3.13;1.23;;;;;;;22.31;100.00;97711.78;15278569;19;20014;-75
2023/08/25 21:01:59;;;;;;;1.90;1.00;;;;;;;22.26;100.00;97716.38;15291218;19;20029;-78
2023/08/25 21:07:26;;;;;;;1.05;0.73;;;;;;;22.22;100.00;97720.72;15294344;19;20002;-77
2023/08/25 21:12:52;;;;;;;2.65;1.00;;;;;;;22.20;100.00;97728.38;15307636;19;20090;-76
2023/08/25 21:18:18;;;;;;;1.25;0.70;;;;;;;22.16;100.00;97737.13;15309839;19;20008;-77
2023/08/25 21:23:47;;;;;;;1.92;0.90;;;;;;;22.13;100.00;97751.34;15306058;19;20043;-76
2023/08/25 21:29:12;;;;;;;1.23;0.98;;;;;;;22.07;100.00;97746.84;15303334;19;20014;-76
2023/08/25 21:34:38;;;;;;;1.83;1.00;;;;;;;21.98;100.00;97748.38;15303233;19;20018;-76
2023/08/25 21:40:08;;;;;;;2.30;1.05;;;;;;;21.95;100.00;97749.72;15300842;19;20017;-77
2023/08/25 21:45:35;;;;;;;2.70;1.00;;;;;;;21.89;100.00;97733.44;15301933;19;20027;-77
2023/08/25 21:50:59;;;;;;;1.45;0.93;;;;;;;21.84;100.00;97732.28;15313354;19;20006;-78
2023/08/25 21:56:20;;;;;;;1.42;1.00;;;;;;;21.80;100.00;97735.75;15297531;19;20025;-75
2023/08/25 22:01:45;;;;;;;2.22;1.00;;;;;;;21.72;100.00;97738.94;15303156;19;20018;-76
2023/08/25 22:07:12;;;;;;;2.13;1.13;;;;;;;21.66;100.00;97740.78;15294092;19;20058;-74
2023/08/25 22:12:47;;;;;;;1.90;0.90;;;;;;;21.62;100.00;97720.41;15294931;19;20010;-76
2023/08/25 22:18:13;;;;;;;1.33;0.88;;;;;;;21.59;100.00;97740.06;15292026;19;20039;-77
2023/08/25 22:23:37;;;;;;;1.42;0.98;;;;;;;21.53;100.00;97742.75;15292003;19;20002;-77
2023/08/25 22:29:04;;;;;;;2.55;1.08;;;;;;;21.51;100.00;97744.91;15274420;19;20019;-76
2023/08/25 22:34:29;;;;;;;1.67;1.17;;;;;;;21.45;100.00;97751.38;15283589;19;20074;-76
2023/08/25 22:39:54;;;;;;;0.93;0.90;;;;;;;21.45;100.00;97751.38;15284454;19;20019;-73
2023/08/25 22:45:21;;;;;;;3.63;1.10;;;;;;;21.45;100.00;97754.13;15277232;19;20370;-76
2023/08/25 22:50:45;;;;;;;1.58;0.93;;;;;;;21.49;100.00;97760.75;15284523;19;20010;-75
2023/08/25 22:56:10;;;;;;;0.82;0.80;;;;;;;21.53;100.00;97770.16;15286731;19;20015;-78
2023/08/25 23:01:38;;;;;;;1.40;0.90;;;;;;;21.58;100.00;97760.34;15286722;19;20050;-74
2023/08/25 23:07:03;;;;;;;1.85;0.90;;;;;;;21.59;100.00;97762.00;15281571;19;20078;-76
2023/08/25 23:12:34;;;;;;;1.63;1.10;;;;;;;21.65;100.00;97750.06;15285142;19;20086;-76
2023/08/25 23:18:01;;;;;;;1.60;0.90;;;;;;;21.67;100.00;97742.44;15281327;19;20490;-75
2023/08/25 23:23:28;;;;;;;1.15;1.00;;;;;;;21.66;100.00;97727.06;15286144;19;20343;-76
2023/08/25 23:28:53;;;;;;;3.03;0.95;;;;;;;21.66;100.00;97711.44;15280749;19;20373;-75
2023/08/25 23:34:20;;;;;;;2.22;0.93;;;;;;;21.64;100.00;97699.88;15280422;19;20039;-76
2023/08/25 23:39:45;;;;;;;1.42;1.08;;;;;;;21.64;100.00;97721.00;15288190;19;20017;-77
2023/08/25 23:45:10;;;;;;;1.95;0.82;;;;;;;21.64;100.00;97707.28;15280652;19;20029;-77
2023/08/25 23:50:44;;;;;;;2.03;0.90;;;;;;;21.69;100.00;97699.16;15294992;19;20840;-75
2023/08/25 23:56:10;;;;;;;1.45;0.88;;;;;;;21.66;100.00;97696.91;15306014;19;20438;-76
